TTPP/POS METAR and TAF weather

Enter ICAO airport designator
Station Type Date Time Source
TTPP METAR 2019/04/20 22:00 UTC NOAA

TTPP 202200Z 10014KT 9999 FEW018 28/22 Q1012 NOSIG


Station Type Date Time Source
TTPP Decoded METAR 2019/04/20 22:00 UTC NOAA

Piarco International Airport, Trinidad, Trinidad and Tobago (TTPP) 10-37N 061-21W 15M
Apr 20, 2019 - 06:00 PM EDT / 2019.04.20 2200 UTC
Wind: from the E (100 degrees) at 16 MPH (14 KT):0
Visibility: greater than 7 mile(s):0
Sky conditions: mostly clear
Temperature: 82 F (28 C)
Dew Point: 71 F (22 C)
Relative Humidity: 69%
Pressure (altimeter): 29.88 in. Hg (1012 hPa)
ob: TTPP 202200Z 10014KT 9999 FEW018 28/22 Q1012 NOSIG
cycle: 22

Station Type Date Time Source
TTPP TAF 2019/04/20 18:25 UTC NOAA

TAF TTPP 201600Z 2018/2118 10012G25KT 9999 SCT025

Example: see airport list